Adaven, Nevada
Current Conditions -  °F | °C
As of 1:56 PM on Thursday 23 Oct 2014 (Local Time) from KTPH Reporting Station
Clear Clear  
Wind Chill: 68°   Ceiling: Unl
Heat Index: 68°   Visibility: 10mi
Dew Point: 23°   Wind: 14mph
Humidity: 18%   Direction: 160°SSE
Pressure: 30.14"   Gusts: NA
Location:  38.13°N, 115.6°W
Report Text: KTPH 232056Z AUTO 16012KT 10SM CLR 20/M05 A3014 RMK AO2 SLP165 T02001050 58022
Loading
Personal Weather Stations






























Interactive Weather Map
Tropical Storm Tracking
New forecast layout! Learn more

10-Day Weather Forecast

Advertisements
Track Severe Weather on mobile